createdAt,value
2022-12-13T00:02:00.068Z,33.58
2022-12-13T00:04:07.463Z,26.38
2022-12-13T00:08:19.697Z,22.20
2022-12-13T00:10:25.906Z,23.30
2022-12-13T00:12:32.213Z,21.67
2022-12-13T00:14:37.287Z,21.33
2022-12-13T00:16:49.221Z,22.55
2022-12-13T00:18:56.798Z,21.50
2022-12-13T00:21:02.122Z,24.67
2022-12-13T00:23:07.067Z,20.33
2022-12-13T00:25:12.450Z,24.65
2022-12-13T00:27:17.727Z,21.70
2022-12-13T00:29:23.355Z,25.90
2022-12-13T00:33:59.259Z,24.45
2022-12-13T00:36:07.629Z,21.38
2022-12-13T00:38:13.220Z,21.90
2022-12-13T00:40:18.787Z,23.75
2022-12-13T00:42:23.697Z,20.25
2022-12-13T00:44:29.016Z,21.70
2022-12-13T00:46:34.751Z,22.90
2022-12-13T00:48:39.678Z,21.58
2022-12-13T00:50:47.585Z,24.10
2022-12-13T00:52:52.491Z,21.25
2022-12-13T00:54:57.376Z,21.92
2022-12-13T00:57:02.746Z,20.17
2022-12-13T00:59:08.811Z,18.70
2022-12-13T01:01:17.299Z,17.67
2022-12-13T01:03:25.849Z,19.90
2022-12-13T01:06:11.037Z,21.10
2022-12-13T01:07:59.486Z,18.83
2022-12-13T01:10:05.203Z,20.38
2022-12-13T01:12:11.224Z,19.48
2022-12-13T01:14:16.810Z,19.67
2022-12-13T01:16:21.761Z,20.02
2022-12-13T01:18:27.925Z,20.63
2022-12-13T01:20:32.847Z,20.88
2022-12-13T01:22:37.784Z,20.48
2022-12-13T01:24:45.405Z,21.73
2022-12-13T01:26:50.369Z,21.67
2022-12-13T01:28:55.339Z,21.25
2022-12-13T01:31:02.769Z,20.52
2022-12-13T01:33:14.104Z,19.15
2022-12-13T01:35:19.779Z,20.23
2022-12-13T01:37:26.168Z,25.42
2022-12-13T01:39:31.736Z,21.58
2022-12-13T01:41:47.335Z,22.05
2022-12-13T01:44:03.485Z,22.58
2022-12-13T01:46:09.029Z,21.48
2022-12-13T01:48:20.504Z,21.08
2022-12-13T01:50:29.595Z,21.88
2022-12-13T01:52:36.947Z,21.55
2022-12-13T01:54:47.877Z,22.75
2022-12-13T01:57:00.953Z,21.55
2022-12-13T01:59:11.749Z,20.85
2022-12-13T02:01:17.320Z,21.67
2022-12-13T02:03:25.611Z,20.38
2022-12-13T02:05:36.795Z,20.45
2022-12-13T02:07:45.840Z,20.77
2022-12-13T02:09:56.242Z,20.83
2022-12-13T02:12:04.964Z,19.73
2022-12-13T02:14:10.344Z,21.98
2022-12-13T02:16:26.964Z,20.42
2022-12-13T02:18:53.028Z,23.98
2022-12-13T02:21:19.264Z,20.48
2022-12-13T02:24:09.104Z,22.30
2022-12-13T02:27:01.265Z,18.98
2022-12-13T02:29:34.059Z,20.38
2022-12-13T02:31:55.278Z,19.88
2022-12-13T02:34:11.615Z,19.67
2022-12-13T02:36:25.749Z,20.30
2022-12-13T02:38:39.303Z,18.65
2022-12-13T02:40:49.771Z,19.95
2022-12-13T02:43:05.479Z,18.70
2022-12-13T02:45:20.855Z,19.02
2022-12-13T02:47:31.377Z,19.15
2022-12-13T02:49:43.030Z,19.80
2022-12-13T02:51:48.761Z,18.20
2022-12-13T02:53:53.745Z,19.08
2022-12-13T02:55:58.937Z,15.90
2022-12-13T02:58:05.571Z,14.45
2022-12-13T03:00:15.585Z,14.52
2022-12-13T03:02:34.861Z,14.65
2022-12-13T03:05:07.953Z,13.93
2022-12-13T03:07:25.615Z,14.80
2022-12-13T03:09:50.481Z,14.90
2022-12-13T03:12:40.008Z,15.52
2022-12-13T03:14:57.636Z,13.70
2022-12-13T03:17:05.605Z,15.15
2022-12-13T03:19:15.795Z,15.43
2022-12-13T03:21:21.019Z,15.13
2022-12-13T03:23:27.764Z,17.98
2022-12-13T03:25:34.512Z,16.25
2022-12-13T03:27:39.436Z,16.55
2022-12-13T03:29:44.711Z,17.33
2022-12-13T03:31:49.855Z,16.90
2022-12-13T03:33:55.244Z,17.13
2022-12-13T03:36:03.784Z,16.65
2022-12-13T03:38:09.188Z,19.08
2022-12-13T03:40:15.017Z,16.83
2022-12-13T03:42:20.442Z,16.90
2022-12-13T03:44:25.369Z,16.58
2022-12-13T03:46:36.634Z,17.63
2022-12-13T03:48:42.452Z,15.90
2022-12-13T03:50:47.453Z,16.65
2022-12-13T03:53:00.945Z,15.88
2022-12-13T03:55:06.272Z,15.55
2022-12-13T03:57:11.288Z,16.80
2022-12-13T03:59:16.269Z,16.15
2022-12-13T04:01:22.242Z,17.23
2022-12-13T04:03:27.363Z,17.48
2022-12-13T04:05:32.476Z,17.40
2022-12-13T04:07:37.729Z,16.83
2022-12-13T04:09:45.454Z,17.95
2022-12-13T04:12:02.824Z,14.82
2022-12-13T04:14:07.766Z,13.38
2022-12-13T04:16:12.706Z,14.52
2022-12-13T04:18:18.771Z,13.90
2022-12-13T04:20:23.968Z,14.57
2022-12-13T04:22:28.964Z,14.57
2022-12-13T04:24:33.885Z,15.95
2022-12-13T04:26:41.415Z,15.00
2022-12-13T04:28:52.545Z,13.35
2022-12-13T04:30:59.360Z,15.05
2022-12-13T04:33:04.555Z,14.40
2022-12-13T04:35:10.584Z,14.80
2022-12-13T04:37:15.577Z,13.55
2022-12-13T04:39:21.631Z,15.50
2022-12-13T04:41:34.317Z,15.60
2022-12-13T04:43:42.246Z,16.00
2022-12-13T04:45:47.292Z,15.32
2022-12-13T04:47:52.639Z,16.05
2022-12-13T04:49:57.692Z,14.63
2022-12-13T04:52:03.081Z,15.35
2022-12-13T04:54:23.654Z,14.70
2022-12-13T04:56:30.414Z,13.02
2022-12-13T04:58:35.400Z,16.08
2022-12-13T05:00:44.475Z,14.05
2022-12-13T05:02:49.673Z,13.38
2022-12-13T05:04:55.004Z,13.75
2022-12-13T05:07:01.255Z,14.88
2022-12-13T05:09:11.488Z,15.52
2022-12-13T05:11:17.017Z,14.32
2022-12-13T05:13:28.039Z,15.85
2022-12-13T05:15:33.078Z,13.10
2022-12-13T05:17:40.786Z,15.13
2022-12-13T05:19:45.922Z,14.52
2022-12-13T05:21:51.612Z,15.73
2022-12-13T05:23:56.543Z,14.98
2022-12-13T05:26:01.716Z,15.23
2022-12-13T05:28:09.069Z,16.15
2022-12-13T05:30:32.931Z,14.82
2022-12-13T05:32:43.056Z,14.98
2022-12-13T05:34:50.102Z,13.88
2022-12-13T05:36:55.092Z,15.82
2022-12-13T05:39:00.487Z,14.80
2022-12-13T05:41:05.450Z,15.05
2022-12-13T05:43:22.308Z,14.73
2022-12-13T05:45:28.336Z,15.63
2022-12-13T05:47:33.563Z,14.52
2022-12-13T05:49:41.730Z,14.93
2022-12-13T05:53:53.420Z,13.05
2022-12-13T05:56:02.024Z,16.15
2022-12-13T05:58:13.004Z,15.15
2022-12-13T06:00:28.776Z,15.35
2022-12-13T06:02:35.515Z,14.52
2022-12-13T06:04:43.981Z,15.43
2022-12-13T06:06:49.136Z,16.00
2022-12-13T06:08:56.400Z,16.95
2022-12-13T06:11:10.901Z,16.58
2022-12-13T06:13:22.190Z,13.27
2022-12-13T06:15:37.196Z,14.70
2022-12-13T06:17:50.443Z,13.30
2022-12-13T06:19:57.931Z,11.77
2022-12-13T06:22:03.976Z,11.27
2022-12-13T06:24:09.855Z,14.75
2022-12-13T06:26:15.062Z,13.43
2022-12-13T06:28:20.668Z,16.75
2022-12-13T06:30:25.651Z,14.40
2022-12-13T06:32:30.708Z,14.35
2022-12-13T06:34:38.296Z,15.82
2022-12-13T06:36:46.035Z,16.20
2022-12-13T06:40:56.399Z,14.65
2022-12-13T06:43:05.694Z,16.77
2022-12-13T06:45:11.815Z,16.73
2022-12-13T06:47:31.356Z,16.63
2022-12-13T06:49:41.016Z,16.75
2022-12-13T06:51:49.009Z,15.90
2022-12-13T06:53:53.971Z,17.33
2022-12-13T06:55:59.748Z,16.55
2022-12-13T06:58:04.696Z,17.00
2022-12-13T07:00:12.169Z,15.90
2022-12-13T07:04:31.435Z,16.10
2022-12-13T07:06:36.880Z,15.52
2022-12-13T07:08:47.127Z,14.65
2022-12-13T07:10:54.329Z,12.57
2022-12-13T07:12:59.387Z,20.45
2022-12-13T07:15:04.665Z,16.20
2022-12-13T07:17:11.056Z,16.65
2022-12-13T07:19:23.572Z,11.52
2022-12-13T07:21:31.594Z,13.32
2022-12-13T07:23:38.877Z,13.52
2022-12-13T07:25:53.239Z,13.13
2022-12-13T07:28:03.330Z,12.70
2022-12-13T07:30:10.670Z,13.68
2022-12-13T07:32:15.822Z,12.07
2022-12-13T07:34:21.056Z,12.43
2022-12-13T07:36:26.968Z,10.57
2022-12-13T07:38:32.119Z,12.35
2022-12-13T07:40:37.513Z,13.90
2022-12-13T07:42:51.465Z,12.48
2022-12-13T07:44:56.592Z,11.48
2022-12-13T07:47:04.275Z,11.13
2022-12-13T07:49:10.612Z,11.43
2022-12-13T07:51:15.861Z,11.25
2022-12-13T07:53:21.801Z,11.98
2022-12-13T07:55:33.585Z,13.23
2022-12-13T07:57:40.606Z,11.73
2022-12-13T07:59:48.653Z,11.30
2022-12-13T08:01:53.560Z,13.85
2022-12-13T08:04:00.223Z,12.02
2022-12-13T08:06:11.409Z,13.25
2022-12-13T08:08:18.750Z,13.15
2022-12-13T08:10:23.991Z,13.77
2022-12-13T08:12:29.180Z,15.18
2022-12-13T08:14:36.241Z,13.25
2022-12-13T08:16:44.915Z,14.10
2022-12-13T08:18:49.912Z,13.60
2022-12-13T08:20:54.836Z,13.90
2022-12-13T08:23:02.906Z,14.98
2022-12-13T08:25:09.716Z,15.20
2022-12-13T08:27:14.704Z,17.15
2022-12-13T08:29:22.302Z,17.65
2022-12-13T08:31:38.073Z,17.20
2022-12-13T08:33:47.645Z,17.40
2022-12-13T08:35:52.642Z,18.48
2022-12-13T08:37:59.759Z,16.70
2022-12-13T08:40:07.837Z,18.73
2022-12-13T08:42:19.204Z,17.63
2022-12-13T08:44:26.947Z,20.33
2022-12-13T08:46:31.922Z,20.02
2022-12-13T08:48:44.287Z,15.80
2022-12-13T08:50:52.697Z,19.73
2022-12-13T08:52:57.623Z,18.08
2022-12-13T08:55:02.551Z,21.77
2022-12-13T08:57:07.567Z,19.10
2022-12-13T08:59:12.510Z,18.35
2022-12-13T09:01:21.488Z,18.48
2022-12-13T09:03:27.381Z,19.02
2022-12-13T09:05:35.098Z,17.30
2022-12-13T09:07:43.922Z,18.23
2022-12-13T09:09:54.686Z,17.98
2022-12-13T09:12:01.099Z,18.35
2022-12-13T09:14:15.632Z,17.33
2022-12-13T09:16:30.546Z,16.15
2022-12-13T09:18:41.678Z,15.90
2022-12-13T09:20:48.383Z,16.80
2022-12-13T09:23:01.185Z,16.60
2022-12-13T09:25:14.723Z,17.73
2022-12-13T09:27:27.977Z,16.27
2022-12-13T09:29:36.381Z,16.40
2022-12-13T09:31:41.625Z,17.63
2022-12-13T09:33:47.729Z,15.82
2022-12-13T09:35:53.635Z,16.40
2022-12-13T09:38:01.561Z,17.38
2022-12-13T09:40:15.672Z,15.52
2022-12-13T09:42:30.243Z,15.93
2022-12-13T09:45:02.194Z,15.18
2022-12-13T09:47:23.651Z,13.85
2022-12-13T09:49:38.464Z,15.90
2022-12-13T09:51:47.393Z,16.65
2022-12-13T09:53:57.549Z,15.68
2022-12-13T09:56:10.642Z,15.60
2022-12-13T09:58:23.309Z,15.77
2022-12-13T10:00:38.358Z,19.80
2022-12-13T10:02:48.902Z,21.00
2022-12-13T10:04:54.559Z,17.13
2022-12-13T10:07:22.016Z,16.98
2022-12-13T10:09:27.585Z,16.33
2022-12-13T10:11:33.358Z,15.85
2022-12-13T10:13:45.960Z,15.13
2022-12-13T10:15:59.892Z,16.17
2022-12-13T10:18:09.453Z,13.63
2022-12-13T10:20:24.160Z,14.63
2022-12-13T10:22:29.415Z,13.65
2022-12-13T10:24:53.039Z,13.35
2022-12-13T10:27:00.367Z,14.77
2022-12-13T10:29:07.503Z,14.90
2022-12-13T10:31:20.803Z,17.23
2022-12-13T10:33:31.277Z,15.20
2022-12-13T10:35:39.755Z,15.02
2022-12-13T10:37:44.699Z,16.30
2022-12-13T10:39:49.655Z,15.43
2022-12-13T10:42:06.917Z,15.68
2022-12-13T10:44:25.642Z,15.68
2022-12-13T10:46:38.381Z,18.70
2022-12-13T10:48:52.003Z,19.90
2022-12-13T10:51:04.255Z,20.33
2022-12-13T10:53:09.307Z,19.83
2022-12-13T10:55:30.256Z,18.38
2022-12-13T10:57:36.589Z,20.52
2022-12-13T10:59:43.319Z,19.58
2022-12-13T11:01:51.125Z,18.98
2022-12-13T11:06:09.225Z,18.67
2022-12-13T11:08:26.586Z,18.92
2022-12-13T11:12:37.530Z,18.92
2022-12-13T11:14:52.521Z,20.45
2022-12-13T11:17:08.285Z,21.35
2022-12-13T11:19:25.456Z,22.25
2022-12-13T11:21:33.837Z,23.98
2022-12-13T11:23:42.657Z,24.02
2022-12-13T11:25:48.898Z,15.32
2022-12-13T11:28:25.663Z,23.88
2022-12-13T11:33:14.055Z,21.60
2022-12-13T11:35:29.080Z,21.92
2022-12-13T11:37:43.482Z,22.48
2022-12-13T11:40:01.707Z,22.48
2022-12-13T11:42:21.198Z,22.55
2022-12-13T11:44:47.406Z,22.38
2022-12-13T11:46:58.538Z,21.75
2022-12-13T11:49:14.809Z,21.88
2022-12-13T11:51:29.923Z,21.60
2022-12-13T11:53:43.753Z,20.75
2022-12-13T11:55:55.311Z,21.02
2022-12-13T11:58:08.079Z,19.02
2022-12-13T12:00:34.123Z,20.00
2022-12-13T12:02:47.256Z,19.35
2022-12-13T12:05:00.863Z,19.05
2022-12-13T12:07:32.496Z,18.95
2022-12-13T12:09:42.568Z,18.08
2022-12-13T12:11:57.527Z,17.85
2022-12-13T12:14:08.416Z,17.13
2022-12-13T12:16:37.121Z,17.27
2022-12-13T12:18:42.352Z,16.98
2022-12-13T12:23:25.608Z,18.77
2022-12-13T12:25:47.245Z,18.20
2022-12-13T12:28:02.943Z,17.27
2022-12-13T12:30:23.056Z,17.77
2022-12-13T12:32:36.759Z,16.27
2022-12-13T12:37:15.738Z,18.27
2022-12-13T12:39:45.763Z,16.48
2022-12-13T12:42:06.581Z,17.10
2022-12-13T12:44:30.575Z,18.58
2022-12-13T12:47:01.589Z,19.50
2022-12-13T12:50:17.781Z,19.20
2022-12-13T12:52:36.972Z,19.77
2022-12-13T12:54:52.908Z,18.98
2022-12-13T12:57:08.421Z,20.80
2022-12-13T12:59:24.947Z,21.83
2022-12-13T13:01:48.703Z,20.95
2022-12-13T13:04:01.798Z,23.50
2022-12-13T13:06:14.810Z,23.60
2022-12-13T13:08:31.653Z,24.73
2022-12-13T13:10:36.939Z,26.27
2022-12-13T13:12:46.152Z,21.73
2022-12-13T13:14:51.213Z,22.25
2022-12-13T13:16:56.783Z,21.35
2022-12-13T13:19:03.011Z,21.75
2022-12-13T13:21:47.189Z,22.25
2022-12-13T13:24:10.048Z,20.25
2022-12-13T13:26:27.024Z,19.75
2022-12-13T13:28:34.712Z,22.25
2022-12-13T13:31:05.116Z,23.70
2022-12-13T13:33:47.916Z,22.35
2022-12-13T13:35:54.268Z,20.90
2022-12-13T13:38:00.833Z,20.52
2022-12-13T13:40:32.274Z,22.42
2022-12-13T13:42:37.295Z,21.58
2022-12-13T13:44:59.674Z,23.23
2022-12-13T13:47:15.037Z,23.08
2022-12-13T13:49:23.550Z,36.50
2022-12-13T13:52:25.415Z,29.05
2022-12-13T13:55:13.962Z,24.30
2022-12-13T13:58:11.393Z,21.13
2022-12-13T14:00:23.707Z,22.00
2022-12-13T14:03:22.339Z,21.60
2022-12-13T14:08:38.664Z,20.48
2022-12-13T14:11:55.056Z,22.42
2022-12-13T14:14:50.114Z,24.88
2022-12-13T14:17:57.854Z,23.73
2022-12-13T14:20:46.731Z,20.92
2022-12-13T14:23:00.768Z,21.40
2022-12-13T14:25:33.581Z,20.85
2022-12-13T14:27:51.601Z,21.38
2022-12-13T14:29:58.459Z,20.85
2022-12-13T14:32:04.637Z,20.80
2022-12-13T14:34:19.908Z,20.98
2022-12-13T14:36:32.410Z,21.33
2022-12-13T14:38:37.828Z,22.52
2022-12-13T14:40:54.183Z,22.75
2022-12-13T14:43:02.145Z,23.02
2022-12-13T14:45:24.900Z,22.58
2022-12-13T14:47:30.605Z,22.55
2022-12-13T14:49:41.710Z,23.13
2022-12-13T14:52:01.723Z,30.85
2022-12-13T14:54:10.222Z,29.63
2022-12-13T14:56:28.645Z,27.20
2022-12-13T14:58:36.520Z,23.25
2022-12-13T15:00:45.883Z,24.35
2022-12-13T15:02:55.405Z,22.40
2022-12-13T15:05:06.755Z,21.92
2022-12-13T15:07:20.504Z,21.83
2022-12-13T15:09:29.083Z,22.27
2022-12-13T15:11:39.315Z,22.67
2022-12-13T15:13:47.752Z,21.77
2022-12-13T15:15:56.991Z,22.52
2022-12-13T15:18:21.296Z,22.08
2022-12-13T15:20:35.089Z,22.13
2022-12-13T15:22:44.142Z,24.83
2022-12-13T15:24:53.432Z,21.63
2022-12-13T15:27:09.184Z,23.00
2022-12-13T15:29:20.140Z,22.52
2022-12-13T15:31:27.096Z,22.38
2022-12-13T15:33:39.334Z,22.90
2022-12-13T15:35:50.457Z,24.47
2022-12-13T15:37:56.047Z,20.77
2022-12-13T15:40:11.331Z,22.48
2022-12-13T15:42:24.529Z,21.20
2022-12-13T15:44:34.500Z,23.02
2022-12-13T15:46:40.515Z,22.58
2022-12-13T15:48:48.679Z,21.70
2022-12-13T15:51:06.814Z,22.75
2022-12-13T15:53:27.309Z,22.38
2022-12-13T15:55:38.058Z,25.08
2022-12-13T15:57:54.860Z,24.13
2022-12-13T16:00:29.248Z,23.10
2022-12-13T16:02:38.196Z,23.83
2022-12-13T16:04:43.566Z,25.33
2022-12-13T16:06:53.540Z,27.33
2022-12-13T16:09:01.931Z,25.83
2022-12-13T16:11:09.031Z,26.00
2022-12-13T16:13:27.893Z,26.00
2022-12-13T16:15:35.344Z,26.55
2022-12-13T16:17:43.037Z,28.17
2022-12-13T16:19:48.360Z,25.52
2022-12-13T16:21:53.365Z,26.42
2022-12-13T16:23:59.038Z,26.52
2022-12-13T16:26:08.734Z,24.33
2022-12-13T16:28:16.516Z,25.95
2022-12-13T16:30:30.123Z,28.65
2022-12-13T16:32:44.486Z,19.95
2022-12-13T16:35:00.492Z,24.33
2022-12-13T16:37:08.847Z,22.95
2022-12-13T16:39:31.547Z,23.13
2022-12-13T16:41:39.740Z,23.42
2022-12-13T16:43:57.483Z,23.55
2022-12-13T16:47:12.088Z,23.60
2022-12-13T16:48:34.925Z,24.85
2022-12-13T16:50:45.932Z,24.85
2022-12-13T16:52:51.543Z,23.98
2022-12-13T16:55:00.524Z,24.25
2022-12-13T16:57:05.629Z,22.90
2022-12-13T16:59:16.769Z,24.20
2022-12-13T17:01:24.462Z,23.35
2022-12-13T17:03:30.603Z,21.08
2022-12-13T17:05:39.055Z,19.52
2022-12-13T17:10:34.767Z,21.67
2022-12-13T17:12:39.858Z,21.90
2022-12-13T17:14:44.867Z,23.73
2022-12-13T17:16:52.542Z,20.52
2022-12-13T17:18:58.121Z,22.73
2022-12-13T17:21:10.431Z,21.25
2022-12-13T17:23:24.964Z,26.15
2022-12-13T17:25:30.004Z,22.10
2022-12-13T17:27:35.138Z,24.60
2022-12-13T17:29:40.205Z,24.55
2022-12-13T17:31:45.222Z,24.83
2022-12-13T17:33:52.840Z,24.30
2022-12-13T17:35:57.832Z,22.40
2022-12-13T17:38:02.906Z,25.40
2022-12-13T17:40:09.678Z,25.10
2022-12-13T17:42:14.615Z,21.17
2022-12-13T17:44:19.622Z,24.67
2022-12-13T17:46:25.565Z,19.48
2022-12-13T17:48:37.202Z,19.77
2022-12-13T17:50:47.765Z,20.63
2022-12-13T17:52:52.820Z,19.67
2022-12-13T17:54:58.024Z,18.42
2022-12-13T17:57:03.804Z,20.90
2022-12-13T17:59:10.193Z,20.30
2022-12-13T18:01:18.405Z,18.63
2022-12-13T18:05:29.587Z,19.27
2022-12-13T18:07:37.767Z,20.35
2022-12-13T18:09:43.218Z,20.77
2022-12-13T18:11:48.380Z,22.48
2022-12-13T18:13:55.374Z,19.50
2022-12-13T18:16:00.781Z,20.45
2022-12-13T18:18:13.132Z,22.95
2022-12-13T18:20:18.691Z,24.75
2022-12-13T18:22:23.726Z,25.10
2022-12-13T18:24:31.328Z,26.33
2022-12-13T18:26:37.016Z,27.13
2022-12-13T18:28:42.510Z,25.30
2022-12-13T18:30:47.766Z,21.58
2022-12-13T18:32:53.112Z,23.27
2022-12-13T18:34:58.091Z,22.35
2022-12-13T18:37:03.316Z,24.95
2022-12-13T18:39:08.475Z,24.02
2022-12-13T18:41:18.797Z,23.52
2022-12-13T18:43:24.142Z,23.35
2022-12-13T18:45:29.227Z,22.88
2022-12-13T18:47:34.482Z,22.30
2022-12-13T18:49:39.780Z,22.15
2022-12-13T18:51:44.753Z,22.80
2022-12-13T18:53:49.759Z,24.63
2022-12-13T18:55:55.338Z,24.02
2022-12-13T18:58:03.014Z,23.58
2022-12-13T19:00:11.067Z,22.45
2022-12-13T19:02:17.844Z,31.60
2022-12-13T19:04:23.004Z,25.05
2022-12-13T19:06:29.759Z,21.60
2022-12-13T19:08:36.475Z,20.83
2022-12-13T19:10:41.780Z,24.07
2022-12-13T19:12:46.824Z,24.65
2022-12-13T19:14:55.280Z,23.38
2022-12-13T19:17:00.353Z,26.50
2022-12-13T19:19:07.107Z,30.00
2022-12-13T19:21:16.595Z,26.13
2022-12-13T19:23:22.747Z,25.50
2022-12-13T19:25:28.017Z,20.63
2022-12-13T19:27:33.251Z,21.73
2022-12-13T19:29:38.587Z,21.38
2022-12-13T19:31:47.008Z,20.45
2022-12-13T19:33:52.081Z,20.25
2022-12-13T19:35:57.081Z,21.40
2022-12-13T19:38:02.176Z,22.08
2022-12-13T19:40:09.649Z,20.95
2022-12-13T19:42:14.611Z,21.95
2022-12-13T19:44:19.709Z,23.45
2022-12-13T19:46:25.187Z,25.15
2022-12-13T19:48:33.479Z,26.85
2022-12-13T19:52:43.403Z,30.77
2022-12-13T19:54:48.457Z,31.90
2022-12-13T19:56:53.552Z,31.35
2022-12-13T19:58:59.939Z,31.50
2022-12-13T20:01:06.165Z,33.05
2022-12-13T20:03:11.271Z,32.33
2022-12-13T20:05:19.555Z,31.70
2022-12-13T20:07:26.608Z,32.22
2022-12-13T20:09:33.099Z,32.90
2022-12-13T20:11:38.267Z,31.52
2022-12-13T20:13:43.388Z,32.33
2022-12-13T20:15:50.550Z,25.85
2022-12-13T20:17:55.609Z,21.83
2022-12-13T20:20:00.702Z,20.05
2022-12-13T20:22:08.716Z,18.45
2022-12-13T20:26:20.393Z,17.98
2022-12-13T20:28:25.532Z,15.50
2022-12-13T20:30:31.786Z,16.27
2022-12-13T20:32:37.336Z,16.95
2022-12-13T20:34:42.316Z,18.65
2022-12-13T20:36:47.541Z,18.33
2022-12-13T20:38:55.826Z,18.20
2022-12-13T20:41:05.053Z,19.33
2022-12-13T20:43:10.229Z,17.42
2022-12-13T20:45:15.547Z,18.20
2022-12-13T20:47:21.007Z,18.90
2022-12-13T20:49:26.072Z,17.35
2022-12-13T20:51:33.237Z,18.85
2022-12-13T20:53:41.935Z,20.95
2022-12-13T20:55:50.187Z,21.15
2022-12-13T20:59:59.942Z,24.35
2022-12-13T21:02:05.005Z,22.30
2022-12-13T21:04:12.279Z,20.95
2022-12-13T21:06:17.724Z,21.13
2022-12-13T21:08:35.294Z,20.30
2022-12-13T21:10:40.270Z,20.38
2022-12-13T21:14:55.489Z,18.70
2022-12-13T21:17:04.671Z,19.52
2022-12-13T21:19:14.723Z,20.33
2022-12-13T21:21:19.824Z,20.02
2022-12-13T21:23:25.494Z,19.95
2022-12-13T21:25:30.711Z,21.30
2022-12-13T21:27:35.705Z,21.90
2022-12-13T21:29:43.295Z,22.30
2022-12-13T21:31:52.479Z,21.42
2022-12-13T21:33:59.600Z,29.90
2022-12-13T21:36:15.857Z,33.25
2022-12-13T21:38:21.394Z,29.10
2022-12-13T21:40:29.361Z,23.40
2022-12-13T21:42:34.469Z,23.42
2022-12-13T21:44:42.068Z,21.80
2022-12-13T21:49:12.932Z,24.63
2022-12-13T21:51:21.483Z,24.15
2022-12-13T21:53:26.773Z,26.67
2022-12-13T21:55:40.465Z,24.20
2022-12-13T21:58:00.791Z,27.98
2022-12-13T22:00:13.004Z,32.13
2022-12-13T22:02:21.068Z,37.30
2022-12-13T22:06:31.150Z,34.53
2022-12-13T22:08:36.151Z,30.98
2022-12-13T22:11:01.559Z,43.22
2022-12-13T22:13:06.544Z,32.00
2022-12-13T22:15:17.121Z,23.75
2022-12-13T22:17:29.711Z,23.08
2022-12-13T22:19:40.744Z,23.50
2022-12-13T22:21:45.847Z,23.60
2022-12-13T22:23:51.017Z,21.75
2022-12-13T22:25:56.374Z,26.48
2022-12-13T22:28:01.389Z,24.08
2022-12-13T22:30:08.176Z,21.98
2022-12-13T22:32:16.203Z,21.25
2022-12-13T22:34:21.276Z,21.73
2022-12-13T22:36:27.539Z,20.67
2022-12-13T22:38:32.792Z,25.73
2022-12-13T22:40:41.117Z,38.42
2022-12-13T22:42:48.232Z,25.60
2022-12-13T22:44:53.635Z,22.25
2022-12-13T22:46:59.303Z,18.98
2022-12-13T22:49:08.394Z,20.10
2022-12-13T22:51:16.293Z,19.45
2022-12-13T22:53:21.701Z,19.25
2022-12-13T22:55:27.278Z,21.00
2022-12-13T22:57:32.350Z,20.70
2022-12-13T22:59:38.317Z,19.25
2022-12-13T23:01:47.260Z,18.83
2022-12-13T23:03:53.048Z,21.92
2022-12-13T23:06:09.632Z,18.67
2022-12-13T23:08:14.618Z,19.15
2022-12-13T23:10:32.908Z,18.58
2022-12-13T23:12:50.683Z,17.65
2022-12-13T23:14:55.705Z,20.17
2022-12-13T23:17:02.026Z,19.92
2022-12-13T23:19:40.544Z,17.88
2022-12-13T23:21:38.483Z,18.85
2022-12-13T23:23:43.692Z,17.85
2022-12-13T23:25:49.102Z,17.58
2022-12-13T23:27:54.569Z,18.48
2022-12-13T23:30:00.187Z,20.17
2022-12-13T23:32:05.239Z,22.13
2022-12-13T23:34:11.062Z,19.38
2022-12-13T23:36:20.278Z,19.15
2022-12-13T23:38:28.171Z,20.15
2022-12-13T23:40:33.829Z,19.38
2022-12-13T23:42:38.845Z,20.23
2022-12-13T23:44:45.073Z,19.80
2022-12-13T23:46:50.408Z,18.75
2022-12-13T23:48:55.946Z,19.55
2022-12-13T23:51:01.354Z,21.75
2022-12-13T23:53:07.115Z,20.38
2022-12-13T23:55:15.215Z,19.65
2022-12-13T23:57:20.698Z,20.02
2022-12-13T23:59:26.166Z,19.05
